createdAt,value
2018-06-11T00:03:56.079Z,62.13
2018-06-11T00:07:59.505Z,61.94
2018-06-11T00:12:02.948Z,62.58
2018-06-11T00:16:06.413Z,61.84
2018-06-11T00:20:09.943Z,62.75
2018-06-11T00:24:13.403Z,62.39
2018-06-11T00:28:16.845Z,62.72
2018-06-11T00:32:20.438Z,62.76
2018-06-11T00:36:23.820Z,62.65
2018-06-11T00:40:27.310Z,62.76
2018-06-11T00:44:30.746Z,62.91
2018-06-11T00:48:34.178Z,63.12
2018-06-11T00:52:37.654Z,64.02
2018-06-11T00:56:41.085Z,63.71
2018-06-11T01:00:44.537Z,63.37
2018-06-11T01:04:48.023Z,64.36
2018-06-11T01:08:51.446Z,64.64
2018-06-11T01:12:54.904Z,64.29
2018-06-11T01:16:58.354Z,64.74
2018-06-11T01:21:01.783Z,65.09
2018-06-11T01:25:05.285Z,65.30
2018-06-11T01:29:08.742Z,65.31
2018-06-11T01:33:12.199Z,64.90
2018-06-11T01:37:15.654Z,65.54
2018-06-11T01:41:19.094Z,65.57
2018-06-11T01:45:22.537Z,64.70
2018-06-11T01:49:26.014Z,64.91
2018-06-11T01:53:29.459Z,64.97
2018-06-11T01:57:34.001Z,65.58
2018-06-11T02:01:37.462Z,66.08
2018-06-11T02:05:40.974Z,66.17
2018-06-11T02:09:44.478Z,65.93
2018-06-11T02:13:47.915Z,66.82
2018-06-11T02:17:51.381Z,66.37
2018-06-11T02:21:54.862Z,67.26
2018-06-11T02:25:58.307Z,66.50
2018-06-11T02:30:01.735Z,66.00
2018-06-11T02:34:05.184Z,65.87
2018-06-11T02:38:08.660Z,66.46
2018-06-11T02:42:12.132Z,66.38
2018-06-11T02:46:15.592Z,65.89
2018-06-11T02:50:19.002Z,65.54
2018-06-11T02:54:22.489Z,66.10
2018-06-11T02:58:25.972Z,65.25
2018-06-11T03:02:29.409Z,65.41
2018-06-11T03:06:32.915Z,65.95
2018-06-11T03:10:36.346Z,65.84
2018-06-11T03:14:39.956Z,66.07
2018-06-11T03:18:43.431Z,65.70
2018-06-11T03:22:46.914Z,65.41
2018-06-11T03:26:50.375Z,66.09
2018-06-11T03:30:53.864Z,65.86
2018-06-11T03:34:57.322Z,66.30
2018-06-11T03:39:00.794Z,66.68
2018-06-11T03:43:04.383Z,65.77
2018-06-11T03:47:07.802Z,66.19
2018-06-11T03:51:12.196Z,66.65
2018-06-11T03:55:15.608Z,66.47
2018-06-11T03:59:19.069Z,66.81
2018-06-11T04:03:22.519Z,66.40
2018-06-11T04:07:26.011Z,66.23
2018-06-11T04:11:29.464Z,66.27
2018-06-11T04:15:32.969Z,66.25
2018-06-11T04:19:36.420Z,66.40
2018-06-11T04:23:39.867Z,66.29
2018-06-11T04:27:43.431Z,66.50
2018-06-11T04:31:46.861Z,66.08
2018-06-11T04:35:50.309Z,66.02
2018-06-11T04:39:53.768Z,65.31
2018-06-11T04:43:57.197Z,65.87
2018-06-11T04:48:00.676Z,65.01
2018-06-11T04:52:04.115Z,65.11
2018-06-11T04:56:07.603Z,65.04
2018-06-11T05:00:11.040Z,64.35
2018-06-11T05:04:14.482Z,65.37
2018-06-11T05:08:17.953Z,64.04
2018-06-11T05:12:21.384Z,63.43
2018-06-11T05:16:24.846Z,62.65
2018-06-11T05:20:28.316Z,62.18
2018-06-11T05:24:31.736Z,61.07
2018-06-11T05:28:41.509Z,60.17
2018-06-11T05:32:44.895Z,59.93
2018-06-11T05:36:48.332Z,58.94
2018-06-11T05:40:51.738Z,58.53
2018-06-11T05:44:55.171Z,57.39
2018-06-11T05:48:58.603Z,56.14
2018-06-11T05:53:02.075Z,55.32
2018-06-11T05:57:05.785Z,55.40
2018-06-11T06:01:09.255Z,55.15
2018-06-11T06:05:12.709Z,54.44
2018-06-11T06:09:16.152Z,53.57
2018-06-11T06:13:19.598Z,53.70
2018-06-11T06:17:23.051Z,52.15
2018-06-11T06:21:26.478Z,51.74
2018-06-11T06:25:29.904Z,51.37
2018-06-11T06:29:33.314Z,50.60
2018-06-11T06:33:36.758Z,50.61
2018-06-11T06:37:40.226Z,51.23
2018-06-11T06:41:43.681Z,50.33
2018-06-11T06:45:47.081Z,49.52
2018-06-11T06:49:50.514Z,49.21
2018-06-11T06:53:53.998Z,48.81
2018-06-11T06:57:57.505Z,48.70
2018-06-11T07:02:00.917Z,48.19
2018-06-11T07:06:04.368Z,48.87
2018-06-11T07:10:07.931Z,47.75
2018-06-11T07:14:11.374Z,47.74
2018-06-11T07:18:14.805Z,48.48
2018-06-11T07:22:18.257Z,47.74
2018-06-11T07:26:21.685Z,48.11
2018-06-11T07:30:25.127Z,47.52
2018-06-11T07:34:28.531Z,47.93
2018-06-11T07:38:31.980Z,47.02
2018-06-11T07:42:35.391Z,46.81
2018-06-11T07:46:38.831Z,46.19
2018-06-11T07:50:42.296Z,45.41
2018-06-11T07:54:45.742Z,45.84
2018-06-11T07:58:49.231Z,46.21
2018-06-11T08:02:52.707Z,46.79
2018-06-11T08:06:56.194Z,46.13
2018-06-11T08:10:59.643Z,47.14
2018-06-11T08:15:03.061Z,46.01
2018-06-11T08:19:06.559Z,45.59
2018-06-11T08:23:10.021Z,45.33
2018-06-11T08:27:13.483Z,45.23
2018-06-11T08:31:16.939Z,45.15
2018-06-11T08:35:20.402Z,45.53
2018-06-11T08:39:23.867Z,43.70
2018-06-11T08:43:27.316Z,42.36
2018-06-11T08:47:30.775Z,44.01
2018-06-11T08:51:34.199Z,42.39
2018-06-11T08:55:37.655Z,42.69
2018-06-11T08:59:41.085Z,43.72
2018-06-11T09:03:44.522Z,43.71
2018-06-11T09:07:47.997Z,42.93
2018-06-11T09:11:51.404Z,43.21
2018-06-11T09:15:54.854Z,43.17
2018-06-11T09:19:58.267Z,41.13
2018-06-11T09:24:01.786Z,41.58
2018-06-11T09:28:05.179Z,41.48
2018-06-11T09:32:08.632Z,40.32
2018-06-11T09:36:12.455Z,40.06
2018-06-11T09:40:15.931Z,41.20
2018-06-11T09:44:19.384Z,37.96
2018-06-11T09:48:22.836Z,40.08
2018-06-11T09:52:26.283Z,37.44
2018-06-11T09:56:29.739Z,37.12
2018-06-11T10:00:36.187Z,38.71
2018-06-11T10:04:39.647Z,37.82
2018-06-11T10:08:43.118Z,37.48
2018-06-11T10:12:46.569Z,36.75
2018-06-11T10:16:50.002Z,38.39
2018-06-11T10:20:53.480Z,38.30
2018-06-11T10:24:56.921Z,38.02
2018-06-11T10:29:00.418Z,37.90
2018-06-11T10:33:03.847Z,38.25
2018-06-11T10:37:07.278Z,38.40
2018-06-11T10:41:10.709Z,37.88
2018-06-11T10:45:14.145Z,36.30
2018-06-11T10:49:17.595Z,36.72
2018-06-11T10:53:21.029Z,36.77
2018-06-11T10:57:24.466Z,38.06
2018-06-11T11:01:27.902Z,37.01
2018-06-11T11:05:31.350Z,36.49
2018-06-11T11:09:34.797Z,35.53
2018-06-11T11:13:38.233Z,36.40
2018-06-11T11:17:41.660Z,37.76
2018-06-11T11:21:45.110Z,36.79
2018-06-11T11:25:48.618Z,35.10
2018-06-11T11:29:52.032Z,35.34
2018-06-11T11:33:55.467Z,35.16
2018-06-11T11:37:58.893Z,34.89
2018-06-11T11:42:02.326Z,36.21
2018-06-11T11:46:05.834Z,33.83
2018-06-11T11:50:09.368Z,34.55
2018-06-11T11:54:12.880Z,34.61
2018-06-11T11:58:16.302Z,34.96
2018-06-11T12:02:19.722Z,35.70
2018-06-11T12:06:23.202Z,33.95
2018-06-11T12:10:26.664Z,35.12
2018-06-11T12:14:30.112Z,34.41
2018-06-11T12:18:33.535Z,34.22
2018-06-11T12:22:36.934Z,34.72
2018-06-11T12:26:40.382Z,34.81
2018-06-11T12:30:43.827Z,35.13
2018-06-11T12:34:47.230Z,35.94
2018-06-11T12:38:50.688Z,37.17
2018-06-11T12:42:54.167Z,36.75
2018-06-11T12:46:57.616Z,36.69
2018-06-11T12:51:01.010Z,35.52
2018-06-11T12:55:04.485Z,35.52
2018-06-11T12:59:07.946Z,36.70
2018-06-11T13:03:11.385Z,36.41
2018-06-11T13:07:14.822Z,36.21
2018-06-11T13:11:18.231Z,34.05
2018-06-11T13:15:21.705Z,34.93
2018-06-11T13:19:25.129Z,34.79
2018-06-11T13:23:28.592Z,33.00
2018-06-11T13:27:32.056Z,33.61
2018-06-11T13:31:35.484Z,33.25
2018-06-11T13:35:38.967Z,34.04
2018-06-11T13:39:42.425Z,33.62
2018-06-11T13:43:46.674Z,34.57
2018-06-11T13:47:50.147Z,35.30
2018-06-11T13:51:53.594Z,37.56
2018-06-11T13:55:57.067Z,35.72
2018-06-11T14:00:00.500Z,35.63
2018-06-11T14:04:03.991Z,37.78
2018-06-11T14:08:07.512Z,35.82
2018-06-11T14:12:10.974Z,36.83
2018-06-11T14:16:14.498Z,36.76
2018-06-11T14:20:17.946Z,35.35
2018-06-11T14:24:21.363Z,35.05
2018-06-11T14:28:24.783Z,35.16
2018-06-11T14:32:28.233Z,34.92
2018-06-11T14:36:31.679Z,35.28
2018-06-11T14:40:35.111Z,35.83
2018-06-11T14:44:38.552Z,35.44
2018-06-11T14:48:42.021Z,34.89
2018-06-11T14:52:45.502Z,35.15
2018-06-11T14:56:48.951Z,35.59
2018-06-11T15:00:52.396Z,35.46
2018-06-11T15:04:55.869Z,35.15
2018-06-11T15:08:59.290Z,36.00
2018-06-11T15:13:02.798Z,35.14
2018-06-11T15:17:06.261Z,35.92
2018-06-11T15:21:09.687Z,35.26
2018-06-11T15:25:13.131Z,35.46
2018-06-11T15:29:16.597Z,36.47
2018-06-11T15:33:20.004Z,36.72
2018-06-11T15:37:23.493Z,37.02
2018-06-11T15:41:26.932Z,37.14
2018-06-11T15:45:30.407Z,36.91
2018-06-11T15:49:33.895Z,37.74
2018-06-11T15:53:37.366Z,37.02
2018-06-11T15:57:40.832Z,37.04
2018-06-11T16:01:44.228Z,37.81
2018-06-11T16:05:47.671Z,37.87
2018-06-11T16:09:51.155Z,38.72
2018-06-11T16:13:54.624Z,39.01
2018-06-11T16:17:58.101Z,38.28
2018-06-11T16:22:01.552Z,38.01
2018-06-11T16:26:05.012Z,38.48
2018-06-11T16:30:08.475Z,39.24
2018-06-11T16:34:11.910Z,38.92
2018-06-11T16:38:15.386Z,40.04
2018-06-11T16:42:18.820Z,39.55
2018-06-11T16:46:22.320Z,40.12
2018-06-11T16:50:25.790Z,39.86
2018-06-11T16:54:29.236Z,39.66
2018-06-11T16:58:32.745Z,39.73
2018-06-11T17:02:36.162Z,39.88
2018-06-11T17:06:39.606Z,39.95
2018-06-11T17:10:43.201Z,40.85
2018-06-11T17:14:47.851Z,39.74
2018-06-11T17:18:51.334Z,40.35
2018-06-11T17:22:54.779Z,40.78
2018-06-11T17:26:58.271Z,40.44
2018-06-11T17:31:01.721Z,41.08
2018-06-11T17:35:05.129Z,40.84
2018-06-11T17:39:08.666Z,41.42
2018-06-11T17:43:12.102Z,41.25
2018-06-11T17:47:15.553Z,40.96
2018-06-11T17:51:19.019Z,41.58
2018-06-11T17:55:22.486Z,41.58
2018-06-11T17:59:25.940Z,41.90
2018-06-11T18:03:29.407Z,42.60
2018-06-11T18:07:32.898Z,42.59
2018-06-11T18:11:36.679Z,43.02
2018-06-11T18:15:40.134Z,43.77
2018-06-11T18:19:43.563Z,43.37
2018-06-11T18:23:47.030Z,44.91
2018-06-11T18:27:50.537Z,44.42
2018-06-11T18:31:53.962Z,45.46
2018-06-11T18:35:57.447Z,45.78
2018-06-11T18:40:00.830Z,46.46
2018-06-11T18:44:04.475Z,46.71
2018-06-11T18:48:07.939Z,47.12
2018-06-11T18:52:11.360Z,47.31
2018-06-11T18:56:14.794Z,47.26
2018-06-11T19:00:18.221Z,47.58
2018-06-11T19:04:21.628Z,47.18
2018-06-11T19:08:25.108Z,46.76
2018-06-11T19:12:28.570Z,46.40
2018-06-11T19:16:32.011Z,47.32
2018-06-11T19:20:35.457Z,47.54
2018-06-11T19:24:38.891Z,46.90
2018-06-11T19:28:42.337Z,47.92
2018-06-11T19:32:45.792Z,48.16
2018-06-11T19:36:49.232Z,48.09
2018-06-11T19:40:52.719Z,48.18
2018-06-11T19:44:56.099Z,48.40
2018-06-11T19:48:59.540Z,49.14
2018-06-11T19:53:03.015Z,49.78
2018-06-11T19:57:06.439Z,49.68
2018-06-11T20:01:09.896Z,49.85
2018-06-11T20:05:13.409Z,49.63
2018-06-11T20:09:16.844Z,50.28
2018-06-11T20:13:20.308Z,49.69
2018-06-11T20:17:23.766Z,50.01
2018-06-11T20:21:27.211Z,50.11
2018-06-11T20:25:30.635Z,50.32
2018-06-11T20:29:34.088Z,50.35
2018-06-11T20:33:37.513Z,51.42
2018-06-11T20:37:40.991Z,51.63
2018-06-11T20:41:44.448Z,50.99
2018-06-11T20:45:47.896Z,51.22
2018-06-11T20:49:51.348Z,51.48
2018-06-11T20:53:54.787Z,51.58
2018-06-11T20:57:58.279Z,52.62
2018-06-11T21:02:01.752Z,52.19
2018-06-11T21:06:05.186Z,53.22
2018-06-11T21:10:08.745Z,52.56
2018-06-11T21:14:12.152Z,53.64
2018-06-11T21:18:15.595Z,52.96
2018-06-11T21:22:19.067Z,52.98
2018-06-11T21:26:22.493Z,54.21
2018-06-11T21:30:25.963Z,53.84
2018-06-11T21:34:29.410Z,53.76
2018-06-11T21:38:32.846Z,54.44
2018-06-11T21:42:36.289Z,54.83
2018-06-11T21:46:39.717Z,54.53
2018-06-11T21:50:43.194Z,54.91
2018-06-11T21:54:46.646Z,55.07
2018-06-11T21:58:50.101Z,54.85
2018-06-11T22:02:53.568Z,54.29
2018-06-11T22:06:56.999Z,55.10
2018-06-11T22:11:00.499Z,54.99
2018-06-11T22:15:03.948Z,55.24
2018-06-11T22:19:07.407Z,54.75
2018-06-11T22:23:10.846Z,55.40
2018-06-11T22:27:14.286Z,55.43
2018-06-11T22:31:17.837Z,54.62
2018-06-11T22:35:21.246Z,55.45
2018-06-11T22:39:24.702Z,55.12
2018-06-11T22:43:28.167Z,55.72
2018-06-11T22:47:31.604Z,55.51
2018-06-11T22:51:35.100Z,56.06
2018-06-11T22:55:38.577Z,55.45
2018-06-11T22:59:42.019Z,55.19
2018-06-11T23:03:45.436Z,56.08
2018-06-11T23:07:48.869Z,55.87
2018-06-11T23:11:52.329Z,55.94
2018-06-11T23:15:55.758Z,55.05
2018-06-11T23:19:59.194Z,55.44
2018-06-11T23:24:02.688Z,54.96
2018-06-11T23:28:06.075Z,55.37
2018-06-11T23:32:09.474Z,55.33
2018-06-11T23:36:12.949Z,56.37
2018-06-11T23:40:16.397Z,56.50
2018-06-11T23:44:19.854Z,56.49
2018-06-11T23:48:23.259Z,57.17
2018-06-11T23:52:26.712Z,55.68
2018-06-11T23:56:30.132Z,56.48
